Time;durP1;ratioP1;P1;durP2;ratioP2;P2;SDS_P1;SDS_P2;PMS_P1;PMS_P2;Temp;Humidity;BMP_temperature;BMP_pressure;BME280_temperature;BME280_humidity;BME280_pressure;Samples;Min_cycle;Max_cycle;Signal;HPM_P1;HPM_P2
2021/06/22 00:00:46;;;;;;;4.03;2.67;;;;;;;18.27;100.00;100420.95;1743675;82;21005;-49
2021/06/22 00:03:13;;;;;;;4.65;3.02;;;;;;;18.24;100.00;100423.01;1724431;82;21002;-48
2021/06/22 00:05:39;;;;;;;5.55;3.12;;;;;;;18.22;100.00;100416.99;1704650;82;20999;-49
2021/06/22 00:08:05;;;;;;;6.55;2.72;;;;;;;18.20;100.00;100416.51;1707979;82;20975;-50
2021/06/22 00:10:32;;;;;;;7.30;2.75;;;;;;;18.19;100.00;100412.13;1707743;82;21011;-49
2021/06/22 00:12:59;;;;;;;4.83;2.25;;;;;;;18.19;100.00;100407.98;1705266;82;21015;-43
2021/06/22 00:15:27;;;;;;;3.92;2.42;;;;;;;18.17;100.00;100394.48;1706726;83;21059;-43
2021/06/22 00:17:54;;;;;;;14.53;3.10;;;;;;;18.17;100.00;100393.67;1703455;83;21027;-44
2021/06/22 00:20:21;;;;;;;6.72;3.20;;;;;;;18.17;100.00;100389.52;1704319;84;21038;-43
2021/06/22 00:22:48;;;;;;;4.03;2.00;;;;;;;18.17;100.00;100391.71;1708491;83;21424;-42
2021/06/22 00:25:15;;;;;;;6.92;3.85;;;;;;;18.19;100.00;100390.01;1708212;82;21041;-43
2021/06/22 00:27:42;;;;;;;5.30;2.33;;;;;;;18.19;100.00;100379.75;1708005;84;20987;-43
2021/06/22 00:30:09;;;;;;;6.90;2.30;;;;;;;18.21;100.00;100380.81;1707797;82;20991;-43
2021/06/22 00:32:36;;;;;;;4.55;2.67;;;;;;;18.21;100.00;100371.14;1706551;82;21002;-43
2021/06/22 00:35:03;;;;;;;4.72;2.83;;;;;;;18.22;100.00;100368.59;1700817;84;21039;-45
2021/06/22 00:37:30;;;;;;;3.98;2.42;;;;;;;18.23;100.00;100362.74;1700286;83;21066;-51
2021/06/22 00:39:56;;;;;;;5.00;3.45;;;;;;;18.25;100.00;100355.51;1700863;84;20987;-42
2021/06/22 00:42:23;;;;;;;3.67;2.12;;;;;;;18.25;100.00;100356.31;1700735;83;20975;-49
2021/06/22 00:44:54;;;;;;;5.37;2.65;;;;;;;18.25;100.00;100354.12;1701014;83;21578;-43
2021/06/22 00:47:22;;;;;;;3.77;2.83;;;;;;;18.26;100.00;100350.20;1692901;84;21038;-48
2021/06/22 00:49:49;;;;;;;2.33;1.62;;;;;;;18.28;100.00;100348.50;1702477;83;21493;-43
2021/06/22 00:52:25;;;;;;;8.25;2.40;;;;;;;18.26;100.00;100340.52;1707707;82;20911;-42
2021/06/22 00:54:53;;;;;;;7.12;2.47;;;;;;;18.28;100.00;100343.77;1692790;84;21015;-45
2021/06/22 00:57:20;;;;;;;4.08;2.37;;;;;;;18.28;100.00;100337.44;1691514;84;21042;-44
2021/06/22 00:59:46;;;;;;;5.45;2.55;;;;;;;18.28;100.00;100335.47;1707968;82;21030;-42
2021/06/22 01:02:13;;;;;;;4.37;2.12;;;;;;;18.29;100.00;100327.98;1708240;81;20999;-44
2021/06/22 01:04:39;;;;;;;6.17;2.52;;;;;;;18.30;100.00;100324.05;1753891;81;20981;-43
2021/06/22 01:07:08;;;;;;;9.35;2.27;;;;;;;18.31;100.00;100321.55;1719078;81;21357;-42
2021/06/22 01:09:34;;;;;;;7.33;2.42;;;;;;;18.31;100.00;100319.58;1753961;81;21041;-43
2021/06/22 01:12:03;;;;;;;5.55;2.72;;;;;;;18.30;100.00;100330.42;1724926;81;21463;-42
2021/06/22 01:14:30;;;;;;;2.65;2.00;;;;;;;18.30;100.00;100325.44;1724637;81;21006;-50
2021/06/22 01:16:59;;;;;;;5.33;2.05;;;;;;;18.30;100.00;100331.80;1734756;81;20981;-49
2021/06/22 01:19:25;;;;;;;3.70;1.55;;;;;;;18.31;100.00;100332.61;1753999;81;21068;-48
2021/06/22 01:21:56;;;;;;;7.72;2.50;;;;;;;18.31;100.00;100323.73;1754944;81;21029;-50
2021/06/22 01:24:25;;;;;;;4.03;2.05;;;;;;;18.31;100.00;100326.50;1752816;81;20982;-50
2021/06/22 01:27:00;;;;;;;3.65;2.40;;;;;;;18.29;100.00;100320.48;1737350;82;21018;-51
2021/06/22 01:29:28;;;;;;;4.92;2.00;;;;;;;18.25;100.00;100322.32;1743452;81;20967;-49
2021/06/22 01:31:55;;;;;;;3.87;2.20;;;;;;;18.23;100.00;100314.92;1726519;82;21045;-48
2021/06/22 01:34:25;;;;;;;5.50;2.70;;;;;;;18.17;100.00;100312.09;1719569;82;21021;-50
2021/06/22 01:36:54;;;;;;;2.80;1.90;;;;;;;18.12;100.00;100309.52;1746167;81;20987;-50
2021/06/22 01:39:21;;;;;;;5.28;1.87;;;;;;;18.08;100.00;100312.73;1719077;82;20978;-50
2021/06/22 01:41:47;;;;;;;5.10;2.60;;;;;;;18.08;100.00;100323.80;1718987;82;20994;-49
2021/06/22 01:44:14;;;;;;;4.47;1.70;;;;;;;18.08;100.00;100323.80;1746342;82;21369;-49
2021/06/22 01:46:41;;;;;;;2.98;1.82;;;;;;;18.06;100.00;100324.12;1746354;82;21499;-48
2021/06/22 01:49:09;;;;;;;4.50;2.55;;;;;;;18.07;100.00;100337.36;1746029;82;21480;-48
2021/06/22 01:51:37;;;;;;;4.12;1.62;;;;;;;18.07;100.00;100340.12;1745575;81;21323;-49
2021/06/22 01:54:04;;;;;;;3.95;1.72;;;;;;;18.05;100.00;100344.05;1746069;82;21013;-50
2021/06/22 01:56:32;;;;;;;4.15;1.60;;;;;;;18.07;100.00;100349.80;1745781;82;20950;-49
2021/06/22 01:59:03;;;;;;;4.50;1.55;;;;;;;18.07;100.00;100347.04;1723266;83;20990;-49
2021/06/22 02:01:49;;;;;;;3.85;1.75;;;;;;;18.07;100.00;100349.80;1723114;83;21093;-50
2021/06/22 02:04:17;;;;;;;1.62;1.10;;;;;;;18.07;100.00;100349.80;1745052;82;21549;-50
2021/06/22 02:06:44;;;;;;;4.05;1.30;;;;;;;18.10;100.00;100353.28;1722549;83;21059;-49
2021/06/22 02:09:24;;;;;;;2.12;1.62;;;;;;;18.11;100.00;100360.45;1721171;82;21009;-50
2021/06/22 02:11:51;;;;;;;1.32;1.05;;;;;;;18.12;100.00;100362.06;1722484;83;21006;-50
2021/06/22 02:14:19;;;;;;;4.08;1.45;;;;;;;18.13;100.00;100369.23;1746674;81;20982;-49
2021/06/22 02:16:45;;;;;;;2.30;1.17;;;;;;;18.08;100.00;100372.98;1746277;82;21464;-49
2021/06/22 02:19:11;;;;;;;2.27;1.47;;;;;;;18.04;100.00;100363.72;1746651;82;21013;-50
2021/06/22 02:21:38;;;;;;;2.17;1.25;;;;;;;18.03;100.00;100360.16;1718400;82;21018;-49
2021/06/22 02:24:05;;;;;;;2.50;1.55;;;;;;;18.07;100.00;100358.91;1659371;84;21491;-50
2021/06/22 02:26:33;;;;;;;1.75;1.00;;;;;;;18.13;100.00;100355.41;1718271;83;21118;-51
2021/06/22 02:28:59;;;;;;;1.62;1.10;;;;;;;18.20;100.00;100348.75;1688765;84;21022;-49
2021/06/22 02:31:26;;;;;;;2.60;1.30;;;;;;;18.30;100.00;100351.17;1719723;82;20994;-50
2021/06/22 02:33:54;;;;;;;1.20;0.75;;;;;;;18.43;100.00;100343.19;1738622;81;21038;-49
2021/06/22 02:36:24;;;;;;;1.87;1.10;;;;;;;18.55;100.00;100340.28;1738857;81;21029;-49
2021/06/22 02:38:51;;;;;;;0.82;0.82;;;;;;;18.64;100.00;100333.55;1739046;81;21007;-48
2021/06/22 02:41:18;;;;;;;3.92;1.52;;;;;;;18.71;100.00;100331.60;1737710;81;21411;-50
2021/06/22 02:43:46;;;;;;;1.00;0.88;;;;;;;18.77;100.00;100330.30;1688381;83;21056;-50
2021/06/22 02:46:13;;;;;;;3.15;1.47;;;;;;;18.83;100.00;100335.85;1748855;82;21001;-49
2021/06/22 02:48:41;;;;;;;5.30;1.35;;;;;;;18.89;100.00;100328.98;1747045;82;21498;-48
2021/06/22 02:51:09;;;;;;;5.58;1.10;;;;;;;18.96;100.00;100335.91;1723084;83;21121;-49
2021/06/22 02:53:37;;;;;;;1.60;1.00;;;;;;;19.01;100.00;100328.79;1746185;81;21014;-49
2021/06/22 02:56:04;;;;;;;0.85;0.85;;;;;;;19.06;100.00;100330.77;1746095;82;21073;-48
2021/06/22 02:58:32;;;;;;;3.90;1.05;;;;;;;19.15;100.00;100343.16;1746243;81;21052;-50
2021/06/22 03:01:00;;;;;;;0.98;0.57;;;;;;;19.25;100.00;100341.94;1746374;82;20990;-49
2021/06/22 03:03:26;;;;;;;2.45;1.17;;;;;;;19.34;100.00;100339.31;1742420;82;21428;-49
2021/06/22 03:05:55;;;;;;;1.22;0.98;;;;;;;19.45;100.00;100336.11;1706838;83;20995;-50
2021/06/22 03:08:26;;;;;;;0.60;0.60;;;;;;;19.54;99.62;100336.84;1731024;82;21492;-49
2021/06/22 03:10:52;;;;;;;1.60;0.70;;;;;;;19.61;98.99;100341.25;1688979;83;21034;-50
2021/06/22 03:13:19;;;;;;;2.02;1.05;;;;;;;19.68;98.73;100348.45;1709670;82;21030;-49
2021/06/22 03:15:48;;;;;;;2.10;1.00;;;;;;;19.74;98.43;100347.06;1707770;84;21004;-48
2021/06/22 03:18:15;;;;;;;1.42;1.05;;;;;;;19.79;97.67;100340.50;1731157;82;21050;-50
2021/06/22 03:20:43;;;;;;;1.60;0.95;;;;;;;19.85;97.40;100337.72;1662968;85;21035;-50
2021/06/22 03:23:12;;;;;;;2.60;1.05;;;;;;;19.93;96.75;100351.23;1713069;83;21010;-51
2021/06/22 03:25:40;;;;;;;5.37;1.10;;;;;;;20.00;96.74;100350.09;1712073;82;21002;-49
2021/06/22 03:28:06;;;;;;;2.08;0.88;;;;;;;20.06;96.07;100350.11;1707759;84;21007;-49
2021/06/22 03:30:39;;;;;;;1.20;0.93;;;;;;;20.12;95.34;100359.81;1731399;82;21518;-48
2021/06/22 03:33:07;;;;;;;0.98;0.88;;;;;;;20.19;95.15;100365.59;1707824;84;20974;-48
2021/06/22 03:35:34;;;;;;;0.95;0.80;;;;;;;20.25;94.22;100359.27;1731352;82;21418;-50
2021/06/22 03:38:00;;;;;;;1.55;0.82;;;;;;;20.32;93.80;100354.50;1719138;83;21050;-50
2021/06/22 03:40:27;;;;;;;0.80;0.80;;;;;;;20.39;93.47;100358.89;1709235;83;21050;-50
2021/06/22 03:42:54;;;;;;;1.45;1.05;;;;;;;20.43;92.20;100354.27;1709240;83;21732;-49
2021/06/22 03:45:20;;;;;;;1.95;0.80;;;;;;;20.49;92.26;100355.64;1688726;83;20978;-50
2021/06/22 03:47:49;;;;;;;1.20;0.90;;;;;;;20.56;92.07;100357.88;1709081;83;20903;-50
2021/06/22 03:50:15;;;;;;;2.58;1.45;;;;;;;20.62;91.38;100353.69;1688677;83;21002;-48
2021/06/22 03:52:42;;;;;;;1.67;0.88;;;;;;;20.68;89.85;100351.50;1709490;83;21014;-50
2021/06/22 03:55:26;;;;;;;1.55;1.20;;;;;;;20.74;89.70;100350.88;1709328;83;21097;-49
2021/06/22 03:58:09;;;;;;;1.65;1.20;;;;;;;20.79;89.82;100351.22;1707562;83;21009;-50
2021/06/22 04:00:50;;;;;;;0.80;0.57;;;;;;;20.81;89.63;100354.47;1707787;83;21010;-50
2021/06/22 04:03:18;;;;;;;2.83;1.15;;;;;;;20.82;89.82;100349.13;1709931;83;21038;-48
2021/06/22 04:05:49;;;;;;;0.98;0.80;;;;;;;20.87;89.16;100336.41;1716923;83;21013;-50
2021/06/22 04:08:17;;;;;;;0.95;0.65;;;;;;;20.92;88.47;100345.88;1716590;83;21019;-50
2021/06/22 04:10:44;;;;;;;4.62;1.67;;;;;;;20.99;87.72;100353.04;1716931;83;21474;-50
2021/06/22 04:13:10;;;;;;;5.95;1.30;;;;;;;21.05;87.64;100368.28;1718178;82;20979;-51
2021/06/22 04:15:37;;;;;;;1.42;0.78;;;;;;;21.13;88.26;100374.05;1698049;83;21085;-50
2021/06/22 04:18:08;;;;;;;1.80;1.45;;;;;;;21.21;87.91;100361.97;1718180;83;21001;-50
2021/06/22 04:20:36;;;;;;;4.42;1.37;;;;;;;21.31;87.88;100373.97;1717963;83;21446;-50
2021/06/22 04:23:05;;;;;;;1.98;0.98;;;;;;;21.39;87.08;100357.77;1718146;83;21033;-50
2021/06/22 04:25:32;;;;;;;1.30;0.78;;;;;;;21.47;86.37;100348.45;1718233;83;21013;-50
2021/06/22 04:28:01;;;;;;;1.42;1.32;;;;;;;21.55;85.28;100344.48;1698045;83;21005;-51
2021/06/22 04:30:27;;;;;;;1.45;1.15;;;;;;;21.62;84.08;100339.11;1718279;83;21048;-50
2021/06/22 04:32:54;;;;;;;0.95;0.88;;;;;;;21.67;83.07;100329.11;1712401;83;21420;-50
2021/06/22 04:35:21;;;;;;;2.17;0.60;;;;;;;21.73;82.65;100320.72;1703712;83;21027;-51
2021/06/22 04:37:47;;;;;;;2.15;1.00;;;;;;;21.78;81.18;100307.12;1720565;82;20995;-51
2021/06/22 04:40:14;;;;;;;2.12;1.00;;;;;;;21.84;81.70;100309.88;1705812;83;21019;-50
2021/06/22 04:42:41;;;;;;;1.98;1.10;;;;;;;21.92;81.69;100302.52;1715215;82;21010;-50
2021/06/22 04:45:09;;;;;;;1.17;0.80;;;;;;;22.00;81.33;100315.42;1706444;84;21525;-50
2021/06/22 04:47:36;;;;;;;2.02;0.85;;;;;;;22.07;80.47;100348.99;1690988;84;21497;-50
2021/06/22 04:50:04;;;;;;;1.85;0.70;;;;;;;22.10;80.06;100353.83;1697997;84;21008;-50
2021/06/22 04:52:31;;;;;;;1.55;0.95;;;;;;;22.11;80.16;100374.94;1688373;83;21008;-50
2021/06/22 04:54:58;;;;;;;2.12;0.65;;;;;;;22.10;80.05;100378.88;1688551;84;21028;-51
2021/06/22 04:57:24;;;;;;;3.17;1.00;;;;;;;22.10;79.93;100381.66;1704944;82;20886;-51
2021/06/22 04:59:51;;;;;;;2.05;0.60;;;;;;;22.10;79.70;100385.83;1716183;83;21589;-50
2021/06/22 05:02:18;;;;;;;1.17;0.70;;;;;;;22.09;79.44;100375.29;1721962;83;21046;-50
2021/06/22 05:04:45;;;;;;;1.30;0.85;;;;;;;22.11;79.37;100386.07;1737227;81;20978;-50
2021/06/22 05:07:12;;;;;;;1.87;0.98;;;;;;;22.09;79.49;100384.23;1717949;82;21413;-50
2021/06/22 05:09:38;;;;;;;2.95;1.35;;;;;;;22.05;78.73;100384.71;1757461;79;21026;-50
2021/06/22 05:12:06;;;;;;;1.00;0.90;;;;;;;22.03;78.72;100378.69;1761094;81;21294;-49
2021/06/22 05:14:34;;;;;;;1.98;1.25;;;;;;;22.02;78.94;100391.00;1676277;84;21009;-49
2021/06/22 05:17:00;;;;;;;1.55;0.72;;;;;;;22.02;78.52;100386.23;1745214;81;21013;-50
2021/06/22 05:19:28;;;;;;;5.72;1.37;;;;;;;22.04;78.32;100383.11;1725492;82;21416;-50
2021/06/22 05:21:54;;;;;;;1.80;0.70;;;;;;;22.07;77.94;100372.64;1739244;82;20978;-50
2021/06/22 05:24:21;;;;;;;1.52;0.88;;;;;;;22.08;77.43;100365.90;1744954;82;20981;-50
2021/06/22 05:26:48;;;;;;;1.75;0.78;;;;;;;22.12;77.14;100384.89;1744518;80;21024;-51
2021/06/22 05:29:14;;;;;;;2.95;0.75;;;;;;;22.19;77.57;100382.29;1745057;82;21030;-51
2021/06/22 05:31:41;;;;;;;2.75;0.70;;;;;;;22.30;77.73;100398.72;1729375;81;21049;-50
2021/06/22 05:34:07;;;;;;;1.47;1.02;;;;;;;22.48;78.38;100383.02;1745388;82;21406;-50
2021/06/22 05:36:33;;;;;;;7.47;1.07;;;;;;;22.73;78.26;100346.80;1745069;82;21011;-51
2021/06/22 05:39:00;;;;;;;2.92;1.00;;;;;;;23.03;77.73;100361.59;1745141;82;21517;-51
2021/06/22 05:41:26;;;;;;;6.33;0.70;;;;;;;23.33;77.23;100367.97;1745245;82;21062;-51
2021/06/22 05:43:52;;;;;;;3.08;1.07;;;;;;;23.61;76.97;100354.58;1745336;82;21027;-51
2021/06/22 05:46:19;;;;;;;3.33;0.98;;;;;;;23.91;74.20;100367.90;1745297;82;21018;-51
2021/06/22 05:48:46;;;;;;;2.72;0.90;;;;;;;24.15;73.53;100361.70;1745526;82;21031;-51
2021/06/22 05:51:12;;;;;;;5.15;1.20;;;;;;;24.37;72.80;100359.46;1745332;82;21558;-51
2021/06/22 05:53:39;;;;;;;4.35;1.50;;;;;;;24.55;69.80;100358.36;1745203;82;21508;-51
2021/06/22 05:56:06;;;;;;;2.10;1.12;;;;;;;24.65;69.46;100354.11;1745420;82;21047;-49
2021/06/22 05:58:32;;;;;;;1.10;0.57;;;;;;;24.75;69.17;100354.84;1745014;82;21063;-50
2021/06/22 06:00:59;;;;;;;3.75;1.57;;;;;;;24.83;68.12;100364.16;1745338;82;21114;-51
2021/06/22 06:03:27;;;;;;;3.30;0.75;;;;;;;24.89;67.19;100350.85;1744887;82;38259;-50
2021/06/22 06:05:54;;;;;;;3.25;1.15;;;;;;;24.94;66.61;100345.52;1721280;81;21049;-51
2021/06/22 06:08:20;;;;;;;2.92;1.60;;;;;;;24.99;66.76;100342.99;1754816;81;21405;-50
2021/06/22 06:10:47;;;;;;;4.97;1.15;;;;;;;25.06;65.91;100345.87;1753945;81;21021;-51
2021/06/22 06:13:13;;;;;;;6.92;1.20;;;;;;;25.11;66.96;100348.34;1755058;81;21517;-51
2021/06/22 06:15:39;;;;;;;4.12;0.90;;;;;;;25.19;66.99;100354.84;1754806;81;20970;-49
2021/06/22 06:18:07;;;;;;;3.17;0.93;;;;;;;25.29;66.75;100353.56;1754946;81;21032;-49
2021/06/22 06:20:33;;;;;;;3.52;1.00;;;;;;;25.42;66.37;100364.49;1745050;80;21005;-51
2021/06/22 06:23:00;;;;;;;3.25;1.85;;;;;;;25.55;66.07;100359.46;1743109;82;20997;-50
2021/06/22 06:25:26;;;;;;;3.50;1.27;;;;;;;25.65;64.14;100353.96;1750974;81;21017;-51
2021/06/22 06:28:04;;;;;;;6.28;1.45;;;;;;;25.70;63.84;100363.41;1754892;81;22034;-51
2021/06/22 06:30:30;;;;;;;3.87;0.98;;;;;;;25.75;64.12;100365.85;1753570;81;20986;-51
2021/06/22 06:32:57;;;;;;;6.20;1.72;;;;;;;25.87;63.12;100357.00;1754261;81;21001;-50
2021/06/22 06:35:24;;;;;;;3.80;1.20;;;;;;;25.87;62.31;100355.00;1754427;81;21046;-50
2021/06/22 06:37:51;;;;;;;4.58;1.05;;;;;;;25.92;63.14;100360.25;1764106;80;21516;-50
2021/06/22 06:40:19;;;;;;;1.62;1.02;;;;;;;26.02;61.84;100356.53;1754852;81;21607;-51
2021/06/22 06:42:45;;;;;;;4.55;1.15;;;;;;;26.09;62.22;100364.40;1754019;81;21003;-51
2021/06/22 06:45:12;;;;;;;1.60;0.82;;;;;;;26.13;61.06;100365.22;1755181;81;21072;-50
2021/06/22 06:47:40;;;;;;;4.65;2.02;;;;;;;26.19;61.97;100365.68;1754577;81;21390;-48
2021/06/22 06:50:08;;;;;;;5.37;1.00;;;;;;;26.25;60.73;100368.91;1753201;81;21037;-51
2021/06/22 06:52:34;;;;;;;4.08;1.07;;;;;;;26.29;60.74;100375.36;1754549;81;21026;-51
2021/06/22 09:16:20;;;;;;;12.53;2.35;;;;;;;29.56;53.25;100411.98;1808736;78;22235;-50
2021/06/22 09:19:10;;;;;;;6.85;1.85;;;;;;;29.68;52.36;100411.36;1808978;77;20962;-50
2021/06/22 09:21:55;;;;;;;7.80;1.85;;;;;;;29.78;52.37;100416.12;1810982;78;21039;-50
2021/06/22 09:25:01;;;;;;;7.22;2.77;;;;;;;29.91;52.71;100411.59;1794375;79;20993;-50
2021/06/22 09:27:51;;;;;;;15.50;3.52;;;;;;;30.02;51.78;100422.80;1821986;78;20973;-42
2021/06/22 09:30:59;;;;;;;6.62;2.30;;;;;;;30.08;51.78;100413.30;1800883;78;20959;-51
2021/06/22 09:33:54;;;;;;;12.00;1.92;;;;;;;30.07;51.55;100411.67;1775179;79;21000;-49
2021/06/22 09:36:39;;;;;;;5.12;1.05;;;;;;;30.19;51.65;100412.59;1761270;81;20972;-49
2021/06/22 09:39:26;;;;;;;5.70;1.92;;;;;;;30.26;50.99;100415.38;1771001;80;21014;-50
2021/06/22 09:42:12;;;;;;;5.15;2.20;;;;;;;30.28;51.28;100420.00;1793777;78;21823;-49
2021/06/22 09:45:03;;;;;;;5.05;1.30;;;;;;;30.28;51.09;100422.82;1771974;78;20993;-43
2021/06/22 09:47:49;;;;;;;9.80;2.98;;;;;;;30.25;50.31;100424.27;1768827;79;20996;-43
2021/06/22 09:50:42;;;;;;;3.62;1.62;;;;;;;30.23;50.91;100424.64;1740167;82;21012;-49
2021/06/22 09:53:31;;;;;;;3.92;1.95;;;;;;;30.23;50.43;100426.05;1760776;79;21606;-42
2021/06/22 09:56:22;;;;;;;6.83;2.72;;;;;;;30.24;49.79;100427.64;1828175;77;20971;-50
2021/06/22 09:59:07;;;;;;;10.43;2.35;;;;;;;30.26;49.96;100425.86;1804849;79;21497;-43
2021/06/22 10:01:52;;;;;;;9.48;1.75;;;;;;;30.28;49.69;100429.87;1804246;79;21014;-49
2021/06/22 10:04:41;;;;;;;8.53;2.33;;;;;;;30.25;49.47;100427.88;1830327;77;21034;-43
2021/06/22 10:07:27;;;;;;;5.22;1.87;;;;;;;30.17;49.65;100426.32;1784958;79;21083;-49
2021/06/22 10:10:12;;;;;;;22.27;2.47;;;;;;;30.14;50.41;100434.17;1774133;79;21432;-50
2021/06/22 10:12:58;;;;;;;10.35;2.22;;;;;;;30.16;50.55;100428.92;1756381;81;21079;-49
2021/06/22 10:15:43;;;;;;;6.22;2.90;;;;;;;30.20;51.27;100426.89;1738852;79;21013;-49
2021/06/22 10:18:28;;;;;;;8.58;3.05;;;;;;;30.17;50.86;100434.77;1773622;80;20978;-49
2021/06/22 10:21:13;;;;;;;8.30;2.85;;;;;;;30.15;50.34;100431.56;1793630;79;21422;-49
2021/06/22 10:23:58;;;;;;;6.80;3.80;;;;;;;30.15;51.56;100439.41;1755407;80;21065;-50
2021/06/22 10:26:43;;;;;;;10.48;2.67;;;;;;;30.13;50.74;100441.03;1771050;80;20986;-50
2021/06/22 10:29:30;;;;;;;7.20;2.35;;;;;;;30.14;50.89;100429.94;1743686;81;21423;-49
2021/06/22 10:32:15;;;;;;;8.55;2.50;;;;;;;30.22;50.78;100437.94;1756244;81;21005;-49
2021/06/22 10:35:11;;;;;;;7.75;2.20;;;;;;;30.28;50.28;100435.50;1762761;80;21473;-49
2021/06/22 10:37:58;;;;;;;12.80;3.30;;;;;;;30.34;50.29;100425.98;1779887;80;20991;-50
2021/06/22 10:40:44;;;;;;;12.15;2.55;;;;;;;30.38;50.29;100423.33;1779978;80;21004;-43
2021/06/22 10:43:39;;;;;;;6.47;2.72;;;;;;;30.49;50.03;100429.48;1778660;79;21448;-50
2021/06/22 10:46:24;;;;;;;14.40;3.12;;;;;;;30.59;49.83;100427.99;1780138;80;21452;-50
2021/06/22 10:49:19;;;;;;;14.33;3.77;;;;;;;30.69;49.67;100436.74;1775963;79;21447;-50
2021/06/22 10:52:04;;;;;;;7.10;3.00;;;;;;;30.68;49.27;100435.95;1772442;80;21037;-43
2021/06/22 10:54:52;;;;;;;7.42;2.52;;;;;;;30.72;49.47;100441.57;1797004;79;20990;-49
2021/06/22 10:58:14;;;;;;;8.53;3.30;;;;;;;30.79;50.35;100442.30;1796947;79;21034;-50
2021/06/22 11:01:07;;;;;;;9.10;2.50;;;;;;;30.90;50.67;100447.84;1794386;79;20926;-50
2021/06/22 11:04:06;;;;;;;18.67;3.42;;;;;;;31.02;48.94;100436.64;1790009;78;21448;-43
2021/06/22 11:07:18;;;;;;;10.05;3.37;;;;;;;31.01;48.87;100429.38;1787695;78;20959;-43
2021/06/22 11:10:11;;;;;;;7.50;1.42;;;;;;;30.90;48.86;100438.59;1758297;80;21387;-43
2021/06/22 11:12:57;;;;;;;12.58;2.62;;;;;;;30.90;50.04;100430.13;1784644;79;20990;-44
2021/06/22 11:15:51;;;;;;;11.95;3.12;;;;;;;30.99;48.41;100432.64;1795071;79;21777;-50
2021/06/22 11:18:57;;;;;;;7.65;2.62;;;;;;;31.03;48.39;100438.23;1794976;78;21062;-42
2021/06/22 11:21:49;;;;;;;14.63;3.35;;;;;;;31.07;48.10;100441.83;1796380;79;20990;-43
2021/06/22 11:24:34;;;;;;;5.78;2.20;;;;;;;31.17;47.91;100442.31;1795543;79;21064;-50
2021/06/22 11:27:19;;;;;;;15.25;2.95;;;;;;;31.35;47.40;100438.47;1751178;79;20978;-50
2021/06/22 11:30:05;;;;;;;11.55;2.83;;;;;;;31.51;46.72;100436.50;1778357;79;21070;-49
2021/06/22 11:32:50;;;;;;;5.83;2.62;;;;;;;31.66;46.71;100430.84;1797081;79;21502;-45
2021/06/22 11:35:35;;;;;;;9.13;2.33;;;;;;;31.73;46.71;100434.16;1730145;81;21483;-43
2021/06/22 11:38:19;;;;;;;8.60;2.42;;;;;;;31.82;46.03;100431.61;1746716;81;21495;-44
2021/06/22 11:41:14;;;;;;;7.67;1.92;;;;;;;31.97;45.74;100433.64;1744622;81;21496;-50
2021/06/22 11:44:16;;;;;;;7.22;2.27;;;;;;;32.12;46.06;100432.19;1773052;79;21517;-43
2021/06/22 11:47:05;;;;;;;13.45;1.95;;;;;;;32.31;46.18;100444.19;1765341;80;21074;-49
2021/06/22 11:49:52;;;;;;;6.53;2.65;;;;;;;32.56;45.47;100435.30;1760839;79;20991;-43
2021/06/22 11:52:41;;;;;;;5.58;3.30;;;;;;;32.73;45.48;100445.33;1765317;80;20974;-42
2021/06/22 11:55:25;;;;;;;10.50;3.12;;;;;;;32.84;44.63;100443.11;1778429;79;21018;-44
2021/06/22 11:58:20;;;;;;;10.43;2.40;;;;;;;32.88;43.85;100450.11;1740874;81;21380;-44
2021/06/22 12:01:05;;;;;;;11.00;2.98;;;;;;;32.74;43.63;100452.57;1730218;82;21018;-50
2021/06/22 12:03:55;;;;;;;8.90;2.77;;;;;;;32.53;43.86;100455.17;1759107;79;20982;-43
2021/06/22 12:06:41;;;;;;;10.88;3.02;;;;;;;32.40;44.18;100450.73;1768487;80;20982;-42
2021/06/22 12:09:26;;;;;;;15.15;4.12;;;;;;;32.32;44.09;100452.05;1754099;81;21052;-43
2021/06/22 12:12:12;;;;;;;6.62;2.25;;;;;;;32.23;44.53;100438.48;1750842;81;20958;-50
2021/06/22 12:14:57;;;;;;;8.98;2.52;;;;;;;32.11;44.12;100442.70;1769213;80;20992;-45
2021/06/22 12:17:51;;;;;;;11.03;4.40;;;;;;;31.93;44.74;100438.70;1787813;80;20993;-50
2021/06/22 12:20:39;;;;;;;14.47;3.40;;;;;;;31.87;45.34;100438.19;1763081;80;21001;-49
2021/06/22 12:23:24;;;;;;;16.10;4.67;;;;;;;31.78;43.75;100440.15;1766571;80;20973;-43
2021/06/22 12:26:10;;;;;;;8.80;2.27;;;;;;;31.70;44.38;100440.86;1768996;80;21455;-50
2021/06/22 12:28:54;;;;;;;10.53;3.35;;;;;;;31.74;44.79;100435.16;1777387;80;21038;-43
2021/06/22 12:31:41;;;;;;;9.23;2.87;;;;;;;31.82;44.47;100428.78;1754950;81;21019;-50
2021/06/22 12:34:29;;;;;;;11.20;2.87;;;;;;;32.05;44.57;100427.47;1754830;81;21000;-50
2021/06/22 12:37:24;;;;;;;7.20;2.12;;;;;;;32.34;43.64;100436.28;1761054;80;21061;-49
2021/06/22 12:40:12;;;;;;;13.08;4.45;;;;;;;32.55;42.54;100432.92;1787256;80;20878;-44
2021/06/22 12:42:57;;;;;;;6.72;2.50;;;;;;;32.67;43.03;100435.75;1740352;80;20981;-43
2021/06/22 12:45:42;;;;;;;10.82;3.52;;;;;;;32.84;42.12;100434.63;1793008;79;21550;-49
2021/06/22 12:48:27;;;;;;;13.58;2.77;;;;;;;32.98;42.37;100430.08;1786604;79;21509;-44
2021/06/22 12:51:13;;;;;;;11.30;2.42;;;;;;;33.06;41.39;100435.63;1746132;80;20985;-50
2021/06/22 12:53:58;;;;;;;15.50;3.83;;;;;;;33.19;41.95;100438.81;1768245;78;21008;-43
2021/06/22 12:56:52;;;;;;;8.05;2.15;;;;;;;33.47;41.87;100438.65;1787555;79;20879;-50
2021/06/22 12:59:45;;;;;;;7.85;2.95;;;;;;;33.61;41.09;100435.54;1777462;80;21020;-51
2021/06/22 13:02:32;;;;;;;10.50;2.30;;;;;;;33.66;40.69;100439.89;1755929;80;20919;-50
2021/06/22 13:05:20;;;;;;;5.15;2.17;;;;;;;33.74;40.69;100439.28;1777182;80;20990;-50
2021/06/22 13:08:07;;;;;;;9.00;3.55;;;;;;;33.80;40.23;100433.28;1754758;80;21264;-50
2021/06/22 13:10:57;;;;;;;8.53;3.02;;;;;;;33.86;41.07;100439.84;1784726;80;20994;-50
2021/06/22 13:13:41;;;;;;;13.28;3.77;;;;;;;33.95;40.88;100435.77;1779935;80;21065;-43
2021/06/22 13:16:26;;;;;;;11.73;2.62;;;;;;;33.95;40.68;100445.09;1778309;79;20990;-50
2021/06/22 13:19:13;;;;;;;8.45;2.22;;;;;;;33.94;40.43;100445.52;1752323;80;21041;-44
2021/06/22 13:22:03;;;;;;;8.93;2.35;;;;;;;34.05;40.80;100453.13;1750957;80;20973;-43
2021/06/22 13:24:52;;;;;;;9.33;1.80;;;;;;;34.26;40.60;100446.19;1791288;79;21008;-50
2021/06/22 13:27:43;;;;;;;5.80;2.52;;;;;;;34.36;40.00;100445.75;1788269;80;21025;-50
2021/06/22 13:30:28;;;;;;;6.92;2.87;;;;;;;34.40;40.05;100449.30;1790972;80;20989;-50
2021/06/22 13:33:13;;;;;;;7.83;2.22;;;;;;;34.48;39.03;100454.96;1791065;80;21030;-45
2021/06/22 13:35:58;;;;;;;8.30;1.90;;;;;;;34.43;38.72;100455.50;1756077;80;20983;-50
2021/06/22 13:38:43;;;;;;;7.97;2.08;;;;;;;34.38;39.08;100447.52;1790940;80;21570;-50
2021/06/22 13:41:28;;;;;;;10.40;2.37;;;;;;;34.31;39.19;100457.00;1763064;80;21380;-51
2021/06/22 13:44:13;;;;;;;7.05;2.85;;;;;;;34.32;39.46;100449.28;1790675;80;21000;-50
2021/06/22 13:46:58;;;;;;;11.35;3.08;;;;;;;34.37;38.84;100448.75;1791104;79;21554;-44
2021/06/22 13:49:44;;;;;;;8.08;1.80;;;;;;;34.34;38.47;100442.55;1789302;79;21032;-49
2021/06/22 13:52:28;;;;;;;10.55;2.95;;;;;;;34.32;39.00;100442.19;1791168;79;20971;-43
2021/06/22 13:55:30;;;;;;;5.92;1.47;;;;;;;34.26;38.43;100444.14;1785287;79;21072;-44
2021/06/22 13:58:11;;;;;;;8.98;1.55;;;;;;;34.15;39.04;100439.97;1811699;77;20991;-50
2021/06/22 14:00:56;;;;;;;14.43;3.98;;;;;;;34.12;39.50;100443.70;1779577;79;20968;-50
2021/06/22 14:03:41;;;;;;;6.58;2.58;;;;;;;34.16;39.47;100442.38;1783533;79;20984;-44
2021/06/22 14:06:27;;;;;;;9.73;2.85;;;;;;;34.19;39.32;100438.65;1812477;79;20890;-50
2021/06/22 14:09:13;;;;;;;7.12;2.08;;;;;;;34.09;39.93;100430.41;1817149;77;20979;-43
2021/06/22 14:11:58;;;;;;;14.13;3.37;;;;;;;33.99;39.90;100432.23;1784642;80;21001;-44
2021/06/22 14:14:42;;;;;;;14.80;2.75;;;;;;;33.81;40.03;100428.41;1784088;80;21479;-43
2021/06/22 14:17:27;;;;;;;9.03;2.27;;;;;;;33.71;39.97;100422.38;1780239;80;21018;-51
2021/06/22 14:20:12;;;;;;;8.73;3.20;;;;;;;33.48;40.53;100413.33;1773386;80;21610;-43
2021/06/22 14:22:57;;;;;;;9.30;2.55;;;;;;;33.39;40.79;100411.89;1793449;79;20989;-44